sensor_id;sensor_type;location;lat;lon;timestamp;pressure;altitude;pressure_sealevel;temperature;humidity
81961;BME280;71462;50.650;6.888;2023-07-16T00:00:17;99125.47;;;19.31;52.12
81961;BME280;71462;50.650;6.888;2023-07-16T00:02:21;99134.25;;;19.24;51.95
81961;BME280;71462;50.650;6.888;2023-07-16T00:04:24;99134.03;;;19.33;52.43
81961;BME280;71462;50.650;6.888;2023-07-16T00:06:26;99135.59;;;19.34;51.71
81961;BME280;71462;50.650;6.888;2023-07-16T00:08:29;99133.06;;;19.60;51.32
81961;BME280;71462;50.650;6.888;2023-07-16T00:10:34;99138.75;;;19.55;50.92
81961;BME280;71462;50.650;6.888;2023-07-16T00:12:38;99132.41;;;19.28;51.67
81961;BME280;71462;50.650;6.888;2023-07-16T00:14:40;99138.63;;;19.48;51.39
81961;BME280;71462;50.650;6.888;2023-07-16T00:16:43;99132.19;;;19.17;52.02
81961;BME280;71462;50.650;6.888;2023-07-16T00:18:46;99140.34;;;18.82;53.20
81961;BME280;71462;50.650;6.888;2023-07-16T00:20:49;99147.03;;;18.88;53.05
81961;BME280;71462;50.650;6.888;2023-07-16T00:22:52;99139.47;;;19.13;52.61
81961;BME280;71462;50.650;6.888;2023-07-16T00:24:54;99144.09;;;19.13;52.62
81961;BME280;71462;50.650;6.888;2023-07-16T00:26:57;99145.03;;;19.20;52.51
81961;BME280;71462;50.650;6.888;2023-07-16T00:29:03;99149.16;;;19.34;51.86
81961;BME280;71462;50.650;6.888;2023-07-16T00:31:08;99152.38;;;19.20;52.16
81961;BME280;71462;50.650;6.888;2023-07-16T00:33:11;99150.00;;;19.18;52.27
81961;BME280;71462;50.650;6.888;2023-07-16T00:35:14;99153.59;;;19.22;52.24
81961;BME280;71462;50.650;6.888;2023-07-16T00:37:16;99158.06;;;19.15;52.50
81961;BME280;71462;50.650;6.888;2023-07-16T00:39:19;99155.78;;;19.17;52.29
81961;BME280;71462;50.650;6.888;2023-07-16T00:41:21;99146.81;;;19.13;52.58
81961;BME280;71462;50.650;6.888;2023-07-16T00:43:24;99150.22;;;19.29;52.11
81961;BME280;71462;50.650;6.888;2023-07-16T00:45:28;99158.69;;;19.08;52.83
81961;BME280;71462;50.650;6.888;2023-07-16T00:47:31;99162.88;;;18.86;53.20
81961;BME280;71462;50.650;6.888;2023-07-16T00:49:33;99164.31;;;19.00;52.88
81961;BME280;71462;50.650;6.888;2023-07-16T00:51:37;99160.00;;;19.14;52.57
81961;BME280;71462;50.650;6.888;2023-07-16T00:53:43;99152.94;;;19.10;52.22
81961;BME280;71462;50.650;6.888;2023-07-16T00:55:47;99155.75;;;18.97;52.72
81961;BME280;71462;50.650;6.888;2023-07-16T00:57:50;99159.47;;;19.09;52.46
81961;BME280;71462;50.650;6.888;2023-07-16T00:59:52;99164.50;;;18.91;52.62
81961;BME280;71462;50.650;6.888;2023-07-16T01:01:56;99156.94;;;18.81;53.16
81961;BME280;71462;50.650;6.888;2023-07-16T01:03:59;99161.78;;;18.75;53.15
81961;BME280;71462;50.650;6.888;2023-07-16T01:06:07;99168.28;;;18.86;52.61
81961;BME280;71462;50.650;6.888;2023-07-16T01:08:13;99165.44;;;18.98;52.18
81961;BME280;71462;50.650;6.888;2023-07-16T01:10:18;99166.91;;;19.12;52.33
81961;BME280;71462;50.650;6.888;2023-07-16T01:12:22;99168.97;;;19.18;51.83
81961;BME280;71462;50.650;6.888;2023-07-16T01:14:25;99171.75;;;19.41;51.40
81961;BME280;71462;50.650;6.888;2023-07-16T01:16:28;99173.56;;;19.34;51.69
81961;BME280;71462;50.650;6.888;2023-07-16T01:18:31;99173.69;;;19.41;51.20
81961;BME280;71462;50.650;6.888;2023-07-16T01:20:34;99175.19;;;19.38;51.07
81961;BME280;71462;50.650;6.888;2023-07-16T01:23:00;99182.19;;;19.20;51.68
81961;BME280;71462;50.650;6.888;2023-07-16T01:25:22;99186.75;;;19.00;52.14
81961;BME280;71462;50.650;6.888;2023-07-16T01:27:55;99190.66;;;18.83;52.60
81961;BME280;71462;50.650;6.888;2023-07-16T01:30:04;99195.53;;;18.93;52.10
81961;BME280;71462;50.650;6.888;2023-07-16T01:32:11;99189.72;;;19.11;51.58
81961;BME280;71462;50.650;6.888;2023-07-16T01:34:14;99189.94;;;19.21;51.51
81961;BME280;71462;50.650;6.888;2023-07-16T01:36:17;99198.38;;;19.16;51.20
81961;BME280;71462;50.650;6.888;2023-07-16T01:38:21;99204.78;;;18.92;52.30
81961;BME280;71462;50.650;6.888;2023-07-16T01:40:24;99202.28;;;18.84;51.66
81961;BME280;71462;50.650;6.888;2023-07-16T01:42:28;99199.22;;;18.85;51.95
81961;BME280;71462;50.650;6.888;2023-07-16T01:44:30;99206.66;;;19.08;51.21
81961;BME280;71462;50.650;6.888;2023-07-16T01:46:34;99204.44;;;18.78;52.06
81961;BME280;71462;50.650;6.888;2023-07-16T01:48:37;99210.19;;;18.92;51.44
81961;BME280;71462;50.650;6.888;2023-07-16T01:50:40;99206.34;;;18.93;51.26
81961;BME280;71462;50.650;6.888;2023-07-16T01:52:42;99213.34;;;18.94;50.99
81961;BME280;71462;50.650;6.888;2023-07-16T01:54:45;99209.41;;;18.92;51.02
81961;BME280;71462;50.650;6.888;2023-07-16T01:56:47;99217.06;;;19.06;50.75
81961;BME280;71462;50.650;6.888;2023-07-16T01:58:50;99222.25;;;19.11;50.57
81961;BME280;71462;50.650;6.888;2023-07-16T02:00:55;99219.63;;;18.98;50.48
81961;BME280;71462;50.650;6.888;2023-07-16T02:03:00;99221.34;;;19.07;50.65
81961;BME280;71462;50.650;6.888;2023-07-16T02:05:03;99221.38;;;18.91;50.37
81961;BME280;71462;50.650;6.888;2023-07-16T02:07:06;99223.19;;;19.18;49.80
81961;BME280;71462;50.650;6.888;2023-07-16T02:09:09;99231.91;;;19.27;49.81
81961;BME280;71462;50.650;6.888;2023-07-16T02:11:12;99225.88;;;19.18;49.59
81961;BME280;71462;50.650;6.888;2023-07-16T02:13:15;99231.94;;;19.12;49.77
81961;BME280;71462;50.650;6.888;2023-07-16T02:15:18;99237.13;;;18.85;50.43
81961;BME280;71462;50.650;6.888;2023-07-16T02:17:21;99234.81;;;19.03;50.00
81961;BME280;71462;50.650;6.888;2023-07-16T02:19:25;99242.22;;;19.22;49.45
81961;BME280;71462;50.650;6.888;2023-07-16T02:21:27;99242.63;;;18.89;49.95
81961;BME280;71462;50.650;6.888;2023-07-16T02:23:30;99239.72;;;18.97;49.72
81961;BME280;71462;50.650;6.888;2023-07-16T02:25:33;99249.56;;;19.21;49.22
81961;BME280;71462;50.650;6.888;2023-07-16T02:27:35;99250.34;;;19.22;49.38
81961;BME280;71462;50.650;6.888;2023-07-16T02:29:38;99256.63;;;19.26;49.16
81961;BME280;71462;50.650;6.888;2023-07-16T02:31:40;99255.63;;;19.15;49.11
81961;BME280;71462;50.650;6.888;2023-07-16T02:33:45;99255.06;;;19.25;49.14
81961;BME280;71462;50.650;6.888;2023-07-16T02:35:49;99259.66;;;19.40;48.70
81961;BME280;71462;50.650;6.888;2023-07-16T02:37:53;99261.56;;;19.40;48.81
81961;BME280;71462;50.650;6.888;2023-07-16T02:39:56;99267.25;;;19.50;48.52
81961;BME280;71462;50.650;6.888;2023-07-16T02:41:57;99264.06;;;19.29;48.71
81961;BME280;71462;50.650;6.888;2023-07-16T02:44:01;99268.06;;;19.35;48.78
81961;BME280;71462;50.650;6.888;2023-07-16T02:46:04;99261.63;;;19.24;49.22
81961;BME280;71462;50.650;6.888;2023-07-16T02:48:07;99271.00;;;19.11;49.12
81961;BME280;71462;50.650;6.888;2023-07-16T02:50:10;99271.97;;;19.03;49.47
81961;BME280;71462;50.650;6.888;2023-07-16T02:52:14;99271.34;;;18.78;50.18
81961;BME280;71462;50.650;6.888;2023-07-16T02:54:17;99277.50;;;18.90;49.57
81961;BME280;71462;50.650;6.888;2023-07-16T02:56:19;99280.00;;;18.99;49.18
81961;BME280;71462;50.650;6.888;2023-07-16T02:58:22;99279.94;;;18.95;49.31
81961;BME280;71462;50.650;6.888;2023-07-16T03:00:25;99276.53;;;18.83;49.72
81961;BME280;71462;50.650;6.888;2023-07-16T03:02:27;99278.19;;;18.87;50.12
81961;BME280;71462;50.650;6.888;2023-07-16T03:04:30;99278.56;;;18.74;49.78
81961;BME280;71462;50.650;6.888;2023-07-16T03:06:33;99287.25;;;18.79;49.70
81961;BME280;71462;50.650;6.888;2023-07-16T03:08:38;99289.03;;;18.87;49.92
81961;BME280;71462;50.650;6.888;2023-07-16T03:10:43;99288.41;;;18.94;49.32
81961;BME280;71462;50.650;6.888;2023-07-16T03:12:45;99292.22;;;18.77;49.85
81961;BME280;71462;50.650;6.888;2023-07-16T03:14:50;99298.19;;;18.83;49.60
81961;BME280;71462;50.650;6.888;2023-07-16T03:16:57;99296.44;;;18.90;49.19
81961;BME280;71462;50.650;6.888;2023-07-16T03:19:00;99305.78;;;18.77;49.66
81961;BME280;71462;50.650;6.888;2023-07-16T03:21:04;99306.41;;;19.02;49.16
81961;BME280;71462;50.650;6.888;2023-07-16T03:23:07;99319.31;;;19.24;48.12
81961;BME280;71462;50.650;6.888;2023-07-16T03:25:11;99317.84;;;19.27;48.11
81961;BME280;71462;50.650;6.888;2023-07-16T03:27:14;99330.28;;;19.12;48.34
81961;BME280;71462;50.650;6.888;2023-07-16T03:29:19;99328.06;;;19.34;47.71
81961;BME280;71462;50.650;6.888;2023-07-16T03:31:22;99328.75;;;19.46;47.19
81961;BME280;71462;50.650;6.888;2023-07-16T03:33:25;99328.41;;;19.48;47.36
81961;BME280;71462;50.650;6.888;2023-07-16T03:35:28;99334.25;;;19.50;47.11
81961;BME280;71462;50.650;6.888;2023-07-16T03:37:30;99336.69;;;19.55;46.85
81961;BME280;71462;50.650;6.888;2023-07-16T03:39:33;99337.50;;;19.55;46.79
81961;BME280;71462;50.650;6.888;2023-07-16T03:41:37;99338.88;;;19.49;46.97
81961;BME280;71462;50.650;6.888;2023-07-16T03:43:39;99336.97;;;19.50;46.98
81961;BME280;71462;50.650;6.888;2023-07-16T03:45:42;99333.31;;;19.42;46.84
81961;BME280;71462;50.650;6.888;2023-07-16T03:47:45;99341.44;;;19.42;46.97
81961;BME280;71462;50.650;6.888;2023-07-16T03:49:48;99341.75;;;19.41;46.99
81961;BME280;71462;50.650;6.888;2023-07-16T03:51:50;99334.56;;;19.13;47.60
81961;BME280;71462;50.650;6.888;2023-07-16T03:53:53;99342.94;;;19.24;47.32
81961;BME280;71462;50.650;6.888;2023-07-16T03:55:56;99340.50;;;19.19;47.86
81961;BME280;71462;50.650;6.888;2023-07-16T03:57:59;99341.72;;;19.21;47.35
81961;BME280;71462;50.650;6.888;2023-07-16T04:00:03;99349.41;;;19.19;47.98
81961;BME280;71462;50.650;6.888;2023-07-16T04:02:07;99348.63;;;19.19;47.16
81961;BME280;71462;50.650;6.888;2023-07-16T04:04:10;99349.84;;;19.21;47.93
81961;BME280;71462;50.650;6.888;2023-07-16T04:06:13;99351.94;;;19.12;47.56
81961;BME280;71462;50.650;6.888;2023-07-16T04:08:16;99353.69;;;19.05;48.30
81961;BME280;71462;50.650;6.888;2023-07-16T04:10:19;99357.09;;;19.02;48.36
81961;BME280;71462;50.650;6.888;2023-07-16T04:12:22;99352.19;;;19.07;48.27
81961;BME280;71462;50.650;6.888;2023-07-16T04:14:27;99359.03;;;19.17;47.57
81961;BME280;71462;50.650;6.888;2023-07-16T04:16:36;99356.59;;;19.12;47.89
81961;BME280;71462;50.650;6.888;2023-07-16T04:18:39;99368.56;;;19.11;47.82
81961;BME280;71462;50.650;6.888;2023-07-16T04:20:46;99369.78;;;18.70;48.33
81961;BME280;71462;50.650;6.888;2023-07-16T04:22:49;99368.53;;;18.67;48.67
81961;BME280;71462;50.650;6.888;2023-07-16T04:24:52;99371.75;;;18.85;47.97
81961;BME280;71462;50.650;6.888;2023-07-16T04:26:55;99377.19;;;18.85;48.12
81961;BME280;71462;50.650;6.888;2023-07-16T04:28:58;99378.41;;;18.59;48.17
81961;BME280;71462;50.650;6.888;2023-07-16T04:31:02;99384.53;;;18.72;48.37
81961;BME280;71462;50.650;6.888;2023-07-16T04:33:05;99388.81;;;18.17;49.20
81961;BME280;71462;50.650;6.888;2023-07-16T04:35:08;99386.16;;;18.45;48.96
81961;BME280;71462;50.650;6.888;2023-07-16T04:37:13;99387.38;;;18.48;48.73
81961;BME280;71462;50.650;6.888;2023-07-16T04:39:16;99383.38;;;18.57;48.44
81961;BME280;71462;50.650;6.888;2023-07-16T04:41:22;99384.41;;;18.53;48.58
81961;BME280;71462;50.650;6.888;2023-07-16T04:43:25;99383.66;;;18.68;48.01
81961;BME280;71462;50.650;6.888;2023-07-16T04:45:28;99383.97;;;18.51;48.14
81961;BME280;71462;50.650;6.888;2023-07-16T04:47:32;99396.06;;;18.69;47.67
81961;BME280;71462;50.650;6.888;2023-07-16T04:49:36;99389.25;;;18.87;47.21
81961;BME280;71462;50.650;6.888;2023-07-16T04:51:39;99387.56;;;18.83;47.37
81961;BME280;71462;50.650;6.888;2023-07-16T04:53:42;99395.06;;;18.33;47.69
81961;BME280;71462;50.650;6.888;2023-07-16T04:55:45;99398.97;;;18.20;48.16
81961;BME280;71462;50.650;6.888;2023-07-16T04:57:47;99407.47;;;18.34;47.16
81961;BME280;71462;50.650;6.888;2023-07-16T04:59:50;99405.66;;;18.39;47.31
81961;BME280;71462;50.650;6.888;2023-07-16T05:01:53;99398.28;;;18.51;47.22
81961;BME280;71462;50.650;6.888;2023-07-16T05:04:00;99406.09;;;18.41;47.08
81961;BME280;71462;50.650;6.888;2023-07-16T05:06:05;99403.53;;;18.32;47.47
81961;BME280;71462;50.650;6.888;2023-07-16T05:08:08;99413.53;;;18.03;47.75
81961;BME280;71462;50.650;6.888;2023-07-16T05:10:14;99417.66;;;18.01;47.86
81961;BME280;71462;50.650;6.888;2023-07-16T05:12:16;99418.16;;;17.91;47.67
81961;BME280;71462;50.650;6.888;2023-07-16T05:14:19;99417.03;;;17.80;48.19
81961;BME280;71462;50.650;6.888;2023-07-16T05:16:22;99418.34;;;17.98;47.46
81961;BME280;71462;50.650;6.888;2023-07-16T05:18:26;99418.94;;;18.16;47.39
81961;BME280;71462;50.650;6.888;2023-07-16T05:20:30;99410.59;;;17.96;47.28
81961;BME280;71462;50.650;6.888;2023-07-16T05:22:36;99421.09;;;17.61;47.76
81961;BME280;71462;50.650;6.888;2023-07-16T05:24:40;99418.91;;;17.30;48.54
81961;BME280;71462;50.650;6.888;2023-07-16T05:26:43;99420.19;;;17.69;47.60
81961;BME280;71462;50.650;6.888;2023-07-16T05:28:47;99419.72;;;18.16;46.47
81961;BME280;71462;50.650;6.888;2023-07-16T05:30:57;99412.88;;;18.34;46.12
81961;BME280;71462;50.650;6.888;2023-07-16T05:33:00;99421.19;;;18.42;45.75
81961;BME280;71462;50.650;6.888;2023-07-16T05:35:08;99429.19;;;17.98;46.49
81961;BME280;71462;50.650;6.888;2023-07-16T05:37:13;99421.47;;;18.64;45.97
81961;BME280;71462;50.650;6.888;2023-07-16T05:39:16;99427.72;;;18.53;45.28
81961;BME280;71462;50.650;6.888;2023-07-16T05:41:19;99433.56;;;18.27;46.21
81961;BME280;71462;50.650;6.888;2023-07-16T05:43:25;99431.56;;;18.80;44.97
81961;BME280;71462;50.650;6.888;2023-07-16T05:45:31;99428.31;;;18.74;44.78
81961;BME280;71462;50.650;6.888;2023-07-16T05:47:34;99438.34;;;19.02;43.97
81961;BME280;71462;50.650;6.888;2023-07-16T05:49:37;99456.06;;;18.43;44.38
81961;BME280;71462;50.650;6.888;2023-07-16T05:51:39;99446.88;;;18.20;45.50
81961;BME280;71462;50.650;6.888;2023-07-16T05:53:47;99454.63;;;18.33;44.98
81961;BME280;71462;50.650;6.888;2023-07-16T05:55:50;99450.06;;;18.50;44.91
81961;BME280;71462;50.650;6.888;2023-07-16T05:57:56;99447.94;;;18.83;44.28
81961;BME280;71462;50.650;6.888;2023-07-16T05:59:59;99448.84;;;18.75;44.28
81961;BME280;71462;50.650;6.888;2023-07-16T06:02:02;99451.97;;;18.89;44.65
81961;BME280;71462;50.650;6.888;2023-07-16T06:04:04;99454.66;;;19.17;43.81
81961;BME280;71462;50.650;6.888;2023-07-16T06:06:08;99460.56;;;18.79;44.28
81961;BME280;71462;50.650;6.888;2023-07-16T06:08:11;99468.25;;;18.77;43.69
81961;BME280;71462;50.650;6.888;2023-07-16T06:10:15;99471.09;;;18.68;43.88
81961;BME280;71462;50.650;6.888;2023-07-16T06:12:18;99468.38;;;18.68;44.36
81961;BME280;71462;50.650;6.888;2023-07-16T06:14:22;99474.28;;;18.58;43.38
81961;BME280;71462;50.650;6.888;2023-07-16T06:16:25;99473.31;;;18.91;43.34
81961;BME280;71462;50.650;6.888;2023-07-16T06:18:28;99475.94;;;19.47;42.33
81961;BME280;71462;50.650;6.888;2023-07-16T06:20:30;99494.22;;;18.78;42.79
81961;BME280;71462;50.650;6.888;2023-07-16T06:22:34;99473.75;;;18.93;43.02
81961;BME280;71462;50.650;6.888;2023-07-16T06:24:37;99482.03;;;19.28;42.76
81961;BME280;71462;50.650;6.888;2023-07-16T06:26:41;99485.38;;;18.93;42.78
81961;BME280;71462;50.650;6.888;2023-07-16T06:28:43;99477.47;;;19.32;42.44
81961;BME280;71462;50.650;6.888;2023-07-16T06:30:50;99481.63;;;19.42;41.58
81961;BME280;71462;50.650;6.888;2023-07-16T06:32:54;99480.19;;;19.16;42.07
81961;BME280;71462;50.650;6.888;2023-07-16T06:34:57;99479.22;;;18.81;42.76
81961;BME280;71462;50.650;6.888;2023-07-16T06:36:59;99474.47;;;18.78;42.68
81961;BME280;71462;50.650;6.888;2023-07-16T06:39:02;99482.03;;;18.84;42.73
81961;BME280;71462;50.650;6.888;2023-07-16T06:41:06;99470.78;;;19.42;41.26
81961;BME280;71462;50.650;6.888;2023-07-16T06:43:10;99473.25;;;19.63;39.65
81961;BME280;71462;50.650;6.888;2023-07-16T06:45:11;99484.06;;;19.94;39.74
81961;BME280;71462;50.650;6.888;2023-07-16T06:47:15;99479.03;;;19.61;40.64
81961;BME280;71462;50.650;6.888;2023-07-16T06:49:21;99480.19;;;18.48;41.82
81961;BME280;71462;50.650;6.888;2023-07-16T06:51:24;99473.41;;;18.94;41.51
81961;BME280;71462;50.650;6.888;2023-07-16T06:53:27;99477.44;;;19.44;41.30
81961;BME280;71462;50.650;6.888;2023-07-16T06:55:30;99469.38;;;19.95;40.19
81961;BME280;71462;50.650;6.888;2023-07-16T06:57:32;99469.91;;;20.36;38.92
81961;BME280;71462;50.650;6.888;2023-07-16T06:59:36;99481.59;;;20.05;39.39
81961;BME280;71462;50.650;6.888;2023-07-16T07:01:39;99473.06;;;19.71;39.92
81961;BME280;71462;50.650;6.888;2023-07-16T07:03:42;99481.63;;;19.73;39.36
81961;BME280;71462;50.650;6.888;2023-07-16T07:05:43;99472.75;;;19.13;39.81
81961;BME280;71462;50.650;6.888;2023-07-16T07:07:46;99475.38;;;19.41;39.85
81961;BME280;71462;50.650;6.888;2023-07-16T07:09:49;99478.88;;;19.26;39.92
81961;BME280;71462;50.650;6.888;2023-07-16T07:11:51;99481.72;;;19.02;39.73
81961;BME280;71462;50.650;6.888;2023-07-16T07:13:54;99480.78;;;19.10;39.94
81961;BME280;71462;50.650;6.888;2023-07-16T07:16:00;99478.13;;;19.73;38.84
81961;BME280;71462;50.650;6.888;2023-07-16T07:18:02;99480.66;;;19.97;38.50
81961;BME280;71462;50.650;6.888;2023-07-16T07:20:06;99486.00;;;20.09;38.16
81961;BME280;71462;50.650;6.888;2023-07-16T07:22:09;99485.59;;;19.76;37.94
81961;BME280;71462;50.650;6.888;2023-07-16T07:24:12;99485.06;;;19.86;38.25
81961;BME280;71462;50.650;6.888;2023-07-16T07:26:15;99480.97;;;19.76;37.47
81961;BME280;71462;50.650;6.888;2023-07-16T07:28:19;99486.06;;;18.50;38.93
81961;BME280;71462;50.650;6.888;2023-07-16T07:30:22;99490.09;;;18.96;38.99
81961;BME280;71462;50.650;6.888;2023-07-16T07:32:26;99491.81;;;19.17;38.26
81961;BME280;71462;50.650;6.888;2023-07-16T07:34:28;99481.97;;;19.72;38.30
81961;BME280;71462;50.650;6.888;2023-07-16T07:36:31;99481.59;;;20.05;37.05
81961;BME280;71462;50.650;6.888;2023-07-16T07:38:33;99490.78;;;20.16;37.18
81961;BME280;71462;50.650;6.888;2023-07-16T07:40:36;99483.16;;;20.57;37.71
81961;BME280;71462;50.650;6.888;2023-07-16T07:42:39;99493.06;;;20.30;35.68
81961;BME280;71462;50.650;6.888;2023-07-16T07:44:41;99489.22;;;19.52;37.47
81961;BME280;71462;50.650;6.888;2023-07-16T07:46:44;99483.22;;;19.90;36.48
81961;BME280;71462;50.650;6.888;2023-07-16T07:48:48;99488.84;;;20.32;36.12
81961;BME280;71462;50.650;6.888;2023-07-16T07:50:52;99492.69;;;20.31;35.58
81961;BME280;71462;50.650;6.888;2023-07-16T07:52:55;99486.88;;;20.48;35.38
81961;BME280;71462;50.650;6.888;2023-07-16T07:54:58;99490.28;;;21.23;34.86
81961;BME280;71462;50.650;6.888;2023-07-16T07:57:01;99492.47;;;21.79;34.22
81961;BME280;71462;50.650;6.888;2023-07-16T07:59:08;99496.91;;;22.17;34.26
81961;BME280;71462;50.650;6.888;2023-07-16T08:01:11;99485.56;;;21.39;33.66
81961;BME280;71462;50.650;6.888;2023-07-16T08:03:14;99498.81;;;21.21;34.29
81961;BME280;71462;50.650;6.888;2023-07-16T08:05:18;99490.47;;;21.10;34.33
81961;BME280;71462;50.650;6.888;2023-07-16T08:07:21;99494.59;;;21.24;34.91
81961;BME280;71462;50.650;6.888;2023-07-16T08:09:25;99498.50;;;21.26;33.85
81961;BME280;71462;50.650;6.888;2023-07-16T08:11:28;99507.28;;;19.92;35.04
81961;BME280;71462;50.650;6.888;2023-07-16T08:13:31;99501.50;;;20.09;34.67
81961;BME280;71462;50.650;6.888;2023-07-16T08:15:33;99504.81;;;20.53;34.71
81961;BME280;71462;50.650;6.888;2023-07-16T08:17:36;99508.13;;;20.81;34.12
81961;BME280;71462;50.650;6.888;2023-07-16T08:19:39;99506.09;;;20.98;34.79
81961;BME280;71462;50.650;6.888;2023-07-16T08:21:44;99503.56;;;21.47;33.66
81961;BME280;71462;50.650;6.888;2023-07-16T08:23:48;99497.63;;;21.87;33.54
81961;BME280;71462;50.650;6.888;2023-07-16T08:25:50;99512.50;;;21.93;33.21
81961;BME280;71462;50.650;6.888;2023-07-16T08:27:53;99508.91;;;22.12;32.48
81961;BME280;71462;50.650;6.888;2023-07-16T08:29:55;99507.19;;;21.55;33.06
81961;BME280;71462;50.650;6.888;2023-07-16T08:31:57;99513.41;;;22.27;32.78
81961;BME280;71462;50.650;6.888;2023-07-16T08:34:00;99516.47;;;22.49;32.29
81961;BME280;71462;50.650;6.888;2023-07-16T08:36:05;99523.22;;;21.83;32.97
81961;BME280;71462;50.650;6.888;2023-07-16T08:38:09;99522.03;;;20.61;34.34
81961;BME280;71462;50.650;6.888;2023-07-16T08:40:12;99510.94;;;21.04;34.02
81961;BME280;71462;50.650;6.888;2023-07-16T08:42:14;99513.75;;;20.92;34.52
81961;BME280;71462;50.650;6.888;2023-07-16T08:44:17;99518.38;;;21.50;33.56
81961;BME280;71462;50.650;6.888;2023-07-16T08:46:20;99511.44;;;21.75;32.35
81961;BME280;71462;50.650;6.888;2023-07-16T08:48:24;99513.34;;;21.52;33.29
81961;BME280;71462;50.650;6.888;2023-07-16T08:50:30;99525.97;;;21.40;33.73
81961;BME280;71462;50.650;6.888;2023-07-16T08:52:33;99515.06;;;21.83;33.45
81961;BME280;71462;50.650;6.888;2023-07-16T08:54:37;99527.56;;;21.87;32.87
81961;BME280;71462;50.650;6.888;2023-07-16T08:56:40;99534.81;;;22.29;31.94
81961;BME280;71462;50.650;6.888;2023-07-16T08:58:43;99526.19;;;22.80;31.46
81961;BME280;71462;50.650;6.888;2023-07-16T09:00:47;99521.88;;;22.22;32.15
81961;BME280;71462;50.650;6.888;2023-07-16T09:02:51;99520.38;;;22.51;32.51
81961;BME280;71462;50.650;6.888;2023-07-16T09:04:54;99524.19;;;22.20;32.12
81961;BME280;71462;50.650;6.888;2023-07-16T09:06:58;99523.34;;;21.67;33.70
81961;BME280;71462;50.650;6.888;2023-07-16T09:09:00;99526.00;;;21.86;33.40
81961;BME280;71462;50.650;6.888;2023-07-16T09:11:04;99525.06;;;21.75;32.96
81961;BME280;71462;50.650;6.888;2023-07-16T09:13:07;99521.28;;;21.18;33.18
81961;BME280;71462;50.650;6.888;2023-07-16T09:15:10;99527.69;;;21.29;34.07
81961;BME280;71462;50.650;6.888;2023-07-16T09:17:13;99525.44;;;21.12;34.03
81961;BME280;71462;50.650;6.888;2023-07-16T09:19:16;99540.44;;;21.25;33.41
81961;BME280;71462;50.650;6.888;2023-07-16T09:21:19;99517.34;;;21.58;32.93
81961;BME280;71462;50.650;6.888;2023-07-16T09:23:24;99529.50;;;21.41;33.52
81961;BME280;71462;50.650;6.888;2023-07-16T09:25:28;99526.28;;;20.97;33.34
81961;BME280;71462;50.650;6.888;2023-07-16T09:27:33;99528.03;;;21.05;33.88
81961;BME280;71462;50.650;6.888;2023-07-16T09:29:38;99529.94;;;20.85;34.63
81961;BME280;71462;50.650;6.888;2023-07-16T09:31:52;99518.63;;;21.22;33.53
81961;BME280;71462;50.650;6.888;2023-07-16T09:33:57;99525.38;;;21.08;34.07
81961;BME280;71462;50.650;6.888;2023-07-16T09:36:03;99525.09;;;21.13;33.05
81961;BME280;71462;50.650;6.888;2023-07-16T09:38:06;99527.88;;;22.05;31.79
81961;BME280;71462;50.650;6.888;2023-07-16T09:40:10;99530.94;;;21.16;33.19
81961;BME280;71462;50.650;6.888;2023-07-16T09:42:17;99529.19;;;22.15;31.79
81961;BME280;71462;50.650;6.888;2023-07-16T09:44:27;99522.44;;;22.05;32.04
81961;BME280;71462;50.650;6.888;2023-07-16T09:46:29;99525.84;;;21.76;32.30
81961;BME280;71462;50.650;6.888;2023-07-16T09:48:32;99536.16;;;21.24;32.20
81961;BME280;71462;50.650;6.888;2023-07-16T09:50:36;99534.22;;;21.25;33.88
81961;BME280;71462;50.650;6.888;2023-07-16T09:52:39;99526.66;;;22.29;32.57
81961;BME280;71462;50.650;6.888;2023-07-16T09:54:45;99521.06;;;22.45;31.50
81961;BME280;71462;50.650;6.888;2023-07-16T09:56:54;99527.41;;;22.82;30.63
81961;BME280;71462;50.650;6.888;2023-07-16T09:59:01;99532.19;;;22.92;31.40
81961;BME280;71462;50.650;6.888;2023-07-16T10:01:06;99530.81;;;22.46;30.94
81961;BME280;71462;50.650;6.888;2023-07-16T10:03:10;99516.91;;;23.14;30.37
81961;BME280;71462;50.650;6.888;2023-07-16T10:05:12;99533.19;;;22.77;30.95
81961;BME280;71462;50.650;6.888;2023-07-16T10:07:20;99528.69;;;23.25;30.30
81961;BME280;71462;50.650;6.888;2023-07-16T10:09:36;99534.34;;;23.06;30.63
81961;BME280;71462;50.650;6.888;2023-07-16T10:11:40;99534.50;;;22.60;31.26
81961;BME280;71462;50.650;6.888;2023-07-16T10:13:48;99525.66;;;22.37;30.15
81961;BME280;71462;50.650;6.888;2023-07-16T10:15:52;99528.59;;;22.55;29.67
81961;BME280;71462;50.650;6.888;2023-07-16T10:17:57;99524.41;;;23.24;29.46
81961;BME280;71462;50.650;6.888;2023-07-16T10:20:01;99538.53;;;22.40;31.23
81961;BME280;71462;50.650;6.888;2023-07-16T10:22:06;99532.53;;;23.21;29.92
81961;BME280;71462;50.650;6.888;2023-07-16T10:24:16;99524.25;;;23.92;29.21
81961;BME280;71462;50.650;6.888;2023-07-16T10:26:19;99534.81;;;24.51;28.10
81961;BME280;71462;50.650;6.888;2023-07-16T10:28:22;99532.56;;;24.64;28.03
81961;BME280;71462;50.650;6.888;2023-07-16T10:30:25;99540.06;;;24.19;27.79
81961;BME280;71462;50.650;6.888;2023-07-16T10:32:29;99527.63;;;24.26;27.65
81961;BME280;71462;50.650;6.888;2023-07-16T10:34:34;99537.66;;;24.11;28.00
81961;BME280;71462;50.650;6.888;2023-07-16T10:36:39;99530.41;;;23.41;28.19
81961;BME280;71462;50.650;6.888;2023-07-16T10:38:42;99546.25;;;22.12;29.63
81961;BME280;71462;50.650;6.888;2023-07-16T10:40:45;99532.72;;;23.35;28.70
81961;BME280;71462;50.650;6.888;2023-07-16T10:42:48;99535.44;;;23.35;28.70
81961;BME280;71462;50.650;6.888;2023-07-16T10:44:51;99546.38;;;23.02;28.79
81961;BME280;71462;50.650;6.888;2023-07-16T10:46:55;99542.63;;;23.54;28.74
81961;BME280;71462;50.650;6.888;2023-07-16T10:48:57;99541.28;;;23.74;29.52
81961;BME280;71462;50.650;6.888;2023-07-16T10:51:01;99539.94;;;23.98;28.01
81961;BME280;71462;50.650;6.888;2023-07-16T10:53:04;99531.22;;;23.85;28.69
81961;BME280;71462;50.650;6.888;2023-07-16T10:55:07;99544.50;;;24.35;28.00